Terminal Aerodrome Forecast
Issued by NWS Charleston, WV

Current Version | Previous Version | Text Only | Print | Product List | Glossary Off
Versions: 1 2 3 4 5 6 7 8 9 10 11 12 13 14 15 16 17 18 19 20 21 22 23 24

000
FTUS41 KRLX 272000 AAB
TAFPKB
TAF AMD
KPKB 272014Z 2720/2818 23011G17KT P6SM SCT025 BKN100
     FM272200 20010G15KT P6SM VCTS BKN040CB BKN110
     FM280300 27009KT P6SM BKN040
     FM281300 30009KT P6SM BKN025
     FM281500 28010KT P6SM VCTS BKN025CB
     FM281700 28010KT P6SM -SHRA VCTS BKN030CB=

USA.gov is the U.S. government's official web portal to all federal, state and local government web resources and services.